createdAt,value
2023-05-03T00:00:26.604Z,3.87
2023-05-03T00:02:57.236Z,3.57
2023-05-03T00:05:26.852Z,3.97
2023-05-03T00:07:54.745Z,3.70
2023-05-03T00:10:24.368Z,3.90
2023-05-03T00:12:52.168Z,3.80
2023-05-03T00:15:20.031Z,3.73
2023-05-03T00:17:47.900Z,3.70
2023-05-03T00:20:17.534Z,3.77
2023-05-03T00:22:45.454Z,3.37
2023-05-03T00:25:13.292Z,3.70
2023-05-03T00:27:42.541Z,3.70
2023-05-03T00:30:11.776Z,4.10
2023-05-03T00:32:39.817Z,3.93
2023-05-03T00:35:08.886Z,3.60
2023-05-03T00:37:37.971Z,3.73
2023-05-03T00:40:07.410Z,3.90
2023-05-03T00:42:36.494Z,4.00
2023-05-03T00:45:06.874Z,3.97
2023-05-03T00:47:35.066Z,3.70
2023-05-03T00:50:03.532Z,3.47
2023-05-03T00:52:32.189Z,3.50
2023-05-03T00:55:00.928Z,3.70
2023-05-03T00:57:30.688Z,3.83
2023-05-03T00:59:59.234Z,3.80
2023-05-03T01:02:29.171Z,3.60
2023-05-03T01:04:57.778Z,3.50
2023-05-03T01:07:38.005Z,3.70
2023-05-03T01:10:13.622Z,3.70
2023-05-03T01:12:50.654Z,3.63
2023-05-03T01:15:26.644Z,3.53
2023-05-03T01:18:04.176Z,3.87
2023-05-03T01:20:37.263Z,3.70
2023-05-03T01:23:10.956Z,3.80
2023-05-03T01:25:40.297Z,3.67
2023-05-03T01:28:08.152Z,3.63
2023-05-03T01:30:37.417Z,4.30
2023-05-03T01:33:11.089Z,3.90
2023-05-03T01:35:42.563Z,3.50
2023-05-03T01:38:11.681Z,3.70
2023-05-03T01:40:45.826Z,3.83
2023-05-03T01:43:16.839Z,3.63
2023-05-03T01:45:45.453Z,4.00
2023-05-03T01:48:17.300Z,3.47
2023-05-03T01:50:45.691Z,3.93
2023-05-03T01:53:13.656Z,4.13
2023-05-03T01:55:43.013Z,3.37
2023-05-03T01:58:13.009Z,3.50
2023-05-03T02:00:40.944Z,3.43
2023-05-03T02:03:09.118Z,3.40
2023-05-03T02:05:37.146Z,3.50
2023-05-03T02:08:05.077Z,3.47
2023-05-03T02:10:33.844Z,4.00
2023-05-03T02:13:03.680Z,3.57
2023-05-03T02:15:31.936Z,3.60
2023-05-03T02:18:02.505Z,3.60
2023-05-03T02:20:35.253Z,3.80
2023-05-03T02:23:03.189Z,3.63
2023-05-03T02:25:31.169Z,3.50
2023-05-03T02:27:59.070Z,4.10
2023-05-03T02:30:28.315Z,3.50
2023-05-03T02:32:56.283Z,4.00
2023-05-03T02:35:24.736Z,3.13
2023-05-03T02:37:52.638Z,3.60
2023-05-03T02:40:21.667Z,4.20
2023-05-03T02:42:49.705Z,3.83
2023-05-03T02:45:24.346Z,3.80
2023-05-03T02:47:53.685Z,3.70
2023-05-03T02:50:23.255Z,3.60
2023-05-03T02:52:51.174Z,3.50
2023-05-03T02:55:19.311Z,3.47
2023-05-03T02:57:48.349Z,3.77
2023-05-03T03:00:20.256Z,4.03
2023-05-03T03:02:48.238Z,3.67
2023-05-03T03:05:17.640Z,3.40
2023-05-03T03:07:49.683Z,3.60
2023-05-03T03:10:18.467Z,3.60
2023-05-03T03:12:47.156Z,4.00
2023-05-03T03:15:23.748Z,3.70
2023-05-03T03:17:57.484Z,3.80
2023-05-03T03:20:27.806Z,3.80
2023-05-03T03:22:56.155Z,3.53
2023-05-03T03:25:24.227Z,3.40
2023-05-03T03:27:53.250Z,3.60
2023-05-03T03:30:21.097Z,4.07
2023-05-03T03:32:59.439Z,3.77
2023-05-03T03:35:36.082Z,3.87
2023-05-03T03:38:04.273Z,3.70
2023-05-03T03:40:32.605Z,4.20
2023-05-03T03:43:01.379Z,4.10
2023-05-03T03:45:29.393Z,3.90
2023-05-03T03:47:58.789Z,3.37
2023-05-03T03:50:27.320Z,3.50
2023-05-03T03:52:56.592Z,3.73
2023-05-03T03:55:24.499Z,3.90
2023-05-03T03:57:55.103Z,4.17
2023-05-03T04:00:26.166Z,4.00
2023-05-03T04:03:05.913Z,4.30
2023-05-03T04:05:35.240Z,4.20
2023-05-03T04:08:05.150Z,4.07
2023-05-03T04:10:35.264Z,3.97
2023-05-03T04:13:03.468Z,4.20
2023-05-03T04:15:31.373Z,3.80
2023-05-03T04:18:01.406Z,4.20
2023-05-03T04:20:29.506Z,4.33
2023-05-03T04:22:57.515Z,4.50
2023-05-03T04:25:32.027Z,3.90
2023-05-03T04:28:06.890Z,4.40
2023-05-03T04:30:36.567Z,4.23
2023-05-03T04:33:04.848Z,3.90
2023-05-03T04:35:36.350Z,4.57
2023-05-03T04:38:09.945Z,4.20
2023-05-03T04:40:39.535Z,4.70
2023-05-03T04:43:09.897Z,4.50
2023-05-03T04:45:41.733Z,4.20
2023-05-03T04:48:13.852Z,4.00
2023-05-03T04:50:42.040Z,4.80
2023-05-03T04:53:11.612Z,4.40
2023-05-03T04:55:44.460Z,4.30
2023-05-03T04:58:12.733Z,5.00
2023-05-03T05:00:43.013Z,5.20
2023-05-03T05:03:17.358Z,4.50
2023-05-03T05:05:46.193Z,5.07
2023-05-03T05:08:14.564Z,4.30
2023-05-03T05:10:50.551Z,4.80
2023-05-03T05:13:22.803Z,4.53
2023-05-03T05:15:50.830Z,4.70
2023-05-03T05:18:18.898Z,4.50
2023-05-03T05:20:47.794Z,4.73
2023-05-03T05:23:16.093Z,5.00
2023-05-03T05:25:47.093Z,4.97
2023-05-03T05:28:16.403Z,4.90
2023-05-03T05:30:45.642Z,4.50
2023-05-03T05:33:13.655Z,4.30
2023-05-03T05:35:41.945Z,4.43
2023-05-03T05:38:10.613Z,4.60
2023-05-03T05:40:38.781Z,4.53
2023-05-03T05:43:06.760Z,4.53
2023-05-03T05:45:38.912Z,4.70
2023-05-03T05:48:08.151Z,4.30
2023-05-03T05:50:36.535Z,4.47
2023-05-03T05:53:10.067Z,4.87
2023-05-03T05:55:42.047Z,4.77
2023-05-03T05:58:12.805Z,5.20
2023-05-03T06:00:49.299Z,4.40
2023-05-03T06:03:18.283Z,4.70
2023-05-03T06:05:49.295Z,4.70
2023-05-03T06:08:17.236Z,4.40
2023-05-03T06:10:45.186Z,4.30
2023-05-03T06:13:13.089Z,4.10
2023-05-03T06:15:42.005Z,4.53
2023-05-03T06:18:11.479Z,4.43
2023-05-03T06:20:39.345Z,4.63
2023-05-03T06:23:07.739Z,4.90
2023-05-03T06:25:37.800Z,4.30
2023-05-03T06:28:05.986Z,4.30
2023-05-03T06:30:36.012Z,4.57
2023-05-03T06:33:15.495Z,4.43
2023-05-03T06:35:47.234Z,4.53
2023-05-03T06:38:18.289Z,4.33
2023-05-03T06:40:46.470Z,5.17
2023-05-03T06:43:14.495Z,4.67
2023-05-03T06:45:52.926Z,5.00
2023-05-03T06:48:22.262Z,4.70
2023-05-03T06:50:50.656Z,4.67
2023-05-03T06:53:18.596Z,4.73
2023-05-03T06:55:46.579Z,4.70
2023-05-03T06:58:14.599Z,4.77
2023-05-03T07:00:42.537Z,4.60
2023-05-03T07:03:10.778Z,4.30
2023-05-03T07:05:40.043Z,5.10
2023-05-03T07:08:07.960Z,5.17
2023-05-03T07:10:36.434Z,5.10
2023-05-03T07:13:04.339Z,5.13
2023-05-03T07:15:32.502Z,4.70
2023-05-03T07:18:00.766Z,5.17
2023-05-03T07:20:29.241Z,5.40
2023-05-03T07:22:58.662Z,5.00
2023-05-03T07:25:27.369Z,4.87
2023-05-03T07:27:55.339Z,5.23
2023-05-03T07:30:23.586Z,5.23
2023-05-03T07:32:51.794Z,5.00
2023-05-03T07:35:20.290Z,4.90
2023-05-03T07:37:48.189Z,4.80
2023-05-03T07:40:17.670Z,4.83
2023-05-03T07:42:46.099Z,4.43
2023-05-03T07:45:14.028Z,4.40
2023-05-03T07:47:41.982Z,4.37
2023-05-03T07:50:10.312Z,4.00
2023-05-03T07:52:38.480Z,4.17
2023-05-03T07:55:07.673Z,4.10
2023-05-03T07:57:37.164Z,4.20
2023-05-03T08:00:07.265Z,4.40
2023-05-03T08:02:40.781Z,4.60
2023-05-03T08:05:09.701Z,4.07
2023-05-03T08:07:37.825Z,3.97
2023-05-03T08:10:06.563Z,4.17
2023-05-03T08:12:36.685Z,3.83
2023-05-03T08:15:07.047Z,4.13
2023-05-03T08:17:41.671Z,4.40
2023-05-03T08:20:11.034Z,4.47
2023-05-03T08:22:40.423Z,3.90
2023-05-03T08:25:09.828Z,4.57
2023-05-03T08:27:40.030Z,4.50
2023-05-03T08:30:09.531Z,3.70
2023-05-03T08:32:37.554Z,3.90
2023-05-03T08:35:07.384Z,3.80
2023-05-03T08:37:40.153Z,4.17
2023-05-03T08:40:10.207Z,4.07
2023-05-03T08:42:42.133Z,4.00
2023-05-03T08:45:12.694Z,4.00
2023-05-03T08:47:41.709Z,3.90
2023-05-03T08:50:11.178Z,3.50
2023-05-03T08:52:40.903Z,3.93
2023-05-03T08:55:09.847Z,3.97
2023-05-03T08:57:38.038Z,4.10
2023-05-03T09:00:10.710Z,4.30
2023-05-03T09:02:40.010Z,3.60
2023-05-03T09:05:36.584Z,4.23
2023-05-03T09:08:06.206Z,4.30
2023-05-03T09:10:35.129Z,4.03
2023-05-03T09:13:03.817Z,4.10
2023-05-03T09:15:33.233Z,4.47
2023-05-03T09:18:17.282Z,4.40
2023-05-03T09:20:51.446Z,4.27
2023-05-03T09:23:21.914Z,4.30
2023-05-03T09:25:51.660Z,4.07
2023-05-03T09:28:21.088Z,3.77
2023-05-03T09:30:51.326Z,4.03
2023-05-03T09:33:29.915Z,4.30
2023-05-03T09:35:59.390Z,4.07
2023-05-03T09:38:28.977Z,4.63
2023-05-03T09:40:57.051Z,4.20
2023-05-03T09:43:25.123Z,4.00
2023-05-03T09:46:08.307Z,4.30
2023-05-03T09:48:37.381Z,4.70
2023-05-03T09:51:06.592Z,4.70
2023-05-03T09:53:35.131Z,4.20
2023-05-03T09:56:05.065Z,4.67
2023-05-03T09:58:35.023Z,4.50
2023-05-03T10:01:04.386Z,4.30
2023-05-03T10:03:39.082Z,4.50
2023-05-03T10:06:17.070Z,4.27
2023-05-03T10:08:53.280Z,4.23
2023-05-03T10:11:23.864Z,4.90
2023-05-03T10:13:51.919Z,4.40
2023-05-03T10:16:24.175Z,4.47
2023-05-03T10:18:57.488Z,4.40
2023-05-03T10:21:34.401Z,4.50
2023-05-03T10:24:13.617Z,4.90
2023-05-03T10:26:42.517Z,4.37
2023-05-03T10:29:48.688Z,4.57
2023-05-03T10:32:39.571Z,4.33
2023-05-03T10:35:10.231Z,4.70
2023-05-03T10:37:38.961Z,4.50
2023-05-03T10:40:09.615Z,4.67
2023-05-03T10:42:38.742Z,4.90
2023-05-03T10:45:09.954Z,3.90
2023-05-03T10:47:40.826Z,4.50
2023-05-03T10:50:28.335Z,4.07
2023-05-03T10:52:56.636Z,4.30
2023-05-03T10:55:25.818Z,4.80
2023-05-03T10:57:58.877Z,4.97
2023-05-03T11:00:32.170Z,4.37
2023-05-03T11:03:23.615Z,4.73
2023-05-03T11:05:52.199Z,4.53
2023-05-03T11:08:21.898Z,5.10
2023-05-03T11:10:51.279Z,5.10
2023-05-03T11:13:19.165Z,5.37
2023-05-03T11:15:48.425Z,5.50
2023-05-03T11:18:18.345Z,5.03
2023-05-03T11:20:46.400Z,5.17
2023-05-03T11:23:14.441Z,4.93
2023-05-03T11:25:42.359Z,4.60
2023-05-03T11:28:10.365Z,4.50
2023-05-03T11:30:38.471Z,4.80
2023-05-03T11:33:07.257Z,4.70
2023-05-03T11:35:36.533Z,4.80
2023-05-03T11:38:04.415Z,5.00
2023-05-03T11:40:32.532Z,4.57
2023-05-03T11:43:01.212Z,4.67
2023-05-03T11:45:32.571Z,4.40
2023-05-03T11:48:01.354Z,4.80
2023-05-03T11:50:47.332Z,5.20
2023-05-03T11:53:15.901Z,4.60
2023-05-03T11:55:47.851Z,4.50
2023-05-03T11:58:17.501Z,4.80
2023-05-03T12:00:46.527Z,4.70
2023-05-03T12:03:19.513Z,5.43
2023-05-03T12:05:50.382Z,4.90
2023-05-03T12:08:20.956Z,5.53
2023-05-03T12:10:53.127Z,5.30
2023-05-03T12:13:29.872Z,5.30
2023-05-03T12:16:10.974Z,5.30
2023-05-03T12:18:51.611Z,4.80
2023-05-03T12:23:55.689Z,5.30
2023-05-03T12:26:25.162Z,4.67
2023-05-03T12:28:55.967Z,4.10
2023-05-03T12:31:25.056Z,4.97
2023-05-03T12:34:19.874Z,5.03
2023-05-03T12:36:48.709Z,5.30
2023-05-03T12:39:17.130Z,5.03
2023-05-03T12:44:17.395Z,4.10
2023-05-03T12:46:46.029Z,4.40
2023-05-03T12:49:15.171Z,4.33
2023-05-03T12:51:51.959Z,4.83
2023-05-03T12:54:33.666Z,4.73
2023-05-03T12:57:08.614Z,4.47
2023-05-03T12:59:41.731Z,4.40
2023-05-03T13:04:57.720Z,4.73
2023-05-03T13:07:31.819Z,4.57
2023-05-03T13:12:33.329Z,4.80
2023-05-03T13:15:04.043Z,4.70
2023-05-03T13:17:32.744Z,5.13
2023-05-03T13:20:01.189Z,4.83
2023-05-03T13:22:31.635Z,4.63
2023-05-03T13:24:59.545Z,5.03
2023-05-03T13:27:27.636Z,5.53
2023-05-03T13:29:55.554Z,5.13
2023-05-03T13:32:23.476Z,5.20
2023-05-03T13:34:51.306Z,5.43
2023-05-03T13:37:19.676Z,4.90
2023-05-03T13:39:48.895Z,4.73
2023-05-03T13:42:16.917Z,4.90
2023-05-03T13:44:46.945Z,5.13
2023-05-03T13:47:14.913Z,4.90
2023-05-03T13:49:42.740Z,4.83
2023-05-03T13:52:11.604Z,5.10
2023-05-03T13:54:39.479Z,5.03
2023-05-03T13:57:08.971Z,5.60
2023-05-03T13:59:36.841Z,4.97
2023-05-03T14:02:04.820Z,4.93
2023-05-03T14:04:32.804Z,5.13
2023-05-03T14:07:03.208Z,5.30
2023-05-03T14:09:31.584Z,5.17
2023-05-03T14:11:59.470Z,5.00
2023-05-03T14:14:29.203Z,4.50
2023-05-03T14:16:57.215Z,4.57
2023-05-03T14:19:25.196Z,4.83
2023-05-03T14:21:59.033Z,4.20
2023-05-03T14:24:27.154Z,4.70
2023-05-03T14:26:55.039Z,4.60
2023-05-03T14:29:23.579Z,4.93
2023-05-03T14:31:52.833Z,4.53
2023-05-03T14:34:20.724Z,5.13
2023-05-03T14:36:48.604Z,4.63
2023-05-03T14:39:17.337Z,4.37
2023-05-03T14:41:45.306Z,4.60
2023-05-03T14:44:13.233Z,4.63
2023-05-03T14:46:41.199Z,5.13
2023-05-03T14:49:10.442Z,4.77
2023-05-03T14:51:38.483Z,4.90
2023-05-03T14:54:06.446Z,4.63
2023-05-03T14:56:34.435Z,4.70
2023-05-03T14:59:02.835Z,4.53
2023-05-03T15:01:30.782Z,4.50
2023-05-03T15:03:58.733Z,4.77
2023-05-03T15:06:30.672Z,4.33
2023-05-03T15:08:59.448Z,4.47
2023-05-03T15:11:28.375Z,4.63
2023-05-03T15:13:56.309Z,3.93
2023-05-03T15:16:24.440Z,4.30
2023-05-03T15:18:52.360Z,4.20
2023-05-03T15:21:21.124Z,4.10
2023-05-03T15:23:51.676Z,4.43
2023-05-03T15:26:19.548Z,3.83
2023-05-03T15:28:47.401Z,4.73
2023-05-03T15:31:16.098Z,3.93
2023-05-03T15:33:45.878Z,4.43
2023-05-03T15:36:16.478Z,4.37
2023-05-03T15:38:44.442Z,4.57
2023-05-03T15:41:13.627Z,4.30
2023-05-03T15:43:41.488Z,4.27
2023-05-03T15:46:09.603Z,4.10
2023-05-03T15:48:37.552Z,3.87
2023-05-03T15:51:06.551Z,3.67
2023-05-03T15:53:34.576Z,3.70
2023-05-03T15:56:02.618Z,4.40
2023-05-03T15:58:31.880Z,4.00
2023-05-03T16:01:00.140Z,3.80
2023-05-03T16:03:28.718Z,3.97
2023-05-03T16:05:57.323Z,3.87
2023-05-03T16:08:26.276Z,4.27
2023-05-03T16:10:54.158Z,4.17
2023-05-03T16:13:22.060Z,4.00
2023-05-03T16:15:52.279Z,3.83
2023-05-03T16:18:20.447Z,3.87
2023-05-03T16:20:48.368Z,3.90
2023-05-03T16:23:16.312Z,4.40
2023-05-03T16:25:44.247Z,4.50
2023-05-03T16:28:12.132Z,3.90
2023-05-03T16:30:40.093Z,4.30
2023-05-03T16:33:09.418Z,4.20
2023-05-03T16:35:37.355Z,4.20
2023-05-03T16:38:05.202Z,4.23
2023-05-03T16:40:33.128Z,3.63
2023-05-03T16:43:00.966Z,3.73
2023-05-03T16:45:28.880Z,4.20
2023-05-03T16:47:56.949Z,4.00
2023-05-03T16:50:26.658Z,3.50
2023-05-03T16:52:54.606Z,3.80
2023-05-03T16:55:23.364Z,4.30
2023-05-03T16:57:51.304Z,4.60
2023-05-03T17:00:20.813Z,4.33
2023-05-03T17:02:48.828Z,4.33
2023-05-03T17:05:16.845Z,3.70
2023-05-03T17:07:46.137Z,4.00
2023-05-03T17:10:14.041Z,4.03
2023-05-03T17:12:41.932Z,3.97
2023-05-03T17:15:10.937Z,3.77
2023-05-03T17:17:38.841Z,4.40
2023-05-03T17:20:08.154Z,4.40
2023-05-03T17:22:36.091Z,3.70
2023-05-03T17:25:05.985Z,3.83
2023-05-03T17:27:33.960Z,3.67
2023-05-03T17:30:02.093Z,3.90
2023-05-03T17:32:30.464Z,3.73
2023-05-03T17:34:58.448Z,4.17
2023-05-03T17:37:26.861Z,3.87
2023-05-03T17:39:55.152Z,4.30
2023-05-03T17:42:24.368Z,3.90
2023-05-03T17:44:53.081Z,4.00
2023-05-03T17:47:21.066Z,3.67
2023-05-03T17:49:48.901Z,3.70
2023-05-03T17:52:16.775Z,4.23
2023-05-03T17:54:46.066Z,4.20
2023-05-03T17:57:14.422Z,4.33
2023-05-03T17:59:43.687Z,3.97
2023-05-03T18:02:11.661Z,3.67
2023-05-03T18:04:39.646Z,4.20
2023-05-03T18:07:07.526Z,3.93
2023-05-03T18:09:35.392Z,3.67
2023-05-03T18:12:03.919Z,3.60
2023-05-03T18:14:31.905Z,3.97
2023-05-03T18:17:01.090Z,4.10
2023-05-03T18:19:29.309Z,4.07
2023-05-03T18:21:57.118Z,3.77
2023-05-03T18:24:25.042Z,3.72
2023-05-03T18:26:52.954Z,4.13
2023-05-03T18:29:20.827Z,3.80
2023-05-03T18:31:49.337Z,4.05
2023-05-03T18:34:18.830Z,3.97
2023-05-03T18:36:46.694Z,3.47
2023-05-03T18:39:14.688Z,3.70
2023-05-03T18:41:42.607Z,3.77
2023-05-03T18:44:10.448Z,3.40
2023-05-03T18:46:38.324Z,3.80
2023-05-03T18:49:06.695Z,3.75
2023-05-03T18:51:35.883Z,4.10
2023-05-03T18:54:03.811Z,3.83
2023-05-03T18:56:31.934Z,4.03
2023-05-03T18:58:59.802Z,3.80
2023-05-03T19:01:27.784Z,4.10
2023-05-03T19:03:56.234Z,3.70
2023-05-03T19:06:24.308Z,3.60
2023-05-03T19:08:54.238Z,3.93
2023-05-03T19:11:22.096Z,4.17
2023-05-03T19:13:49.950Z,4.03
2023-05-03T19:16:17.928Z,3.93
2023-05-03T19:18:47.369Z,4.07
2023-05-03T19:21:17.254Z,4.17
2023-05-03T19:23:45.955Z,4.17
2023-05-03T19:26:15.192Z,4.03
2023-05-03T19:28:43.561Z,4.00
2023-05-03T19:31:11.674Z,3.80
2023-05-03T19:33:39.665Z,4.10
2023-05-03T19:36:07.874Z,4.13
2023-05-03T19:38:36.658Z,4.00
2023-05-03T19:41:08.129Z,4.00
2023-05-03T19:43:37.354Z,4.40
2023-05-03T19:46:05.438Z,4.40
2023-05-03T19:48:33.774Z,4.17
2023-05-03T19:51:02.536Z,4.23
2023-05-03T19:53:31.367Z,4.77
2023-05-03T19:56:00.331Z,5.00
2023-05-03T19:58:28.562Z,4.23
2023-05-03T20:00:59.713Z,4.50
2023-05-03T20:03:27.974Z,4.37
2023-05-03T20:05:55.913Z,4.60
2023-05-03T20:08:24.185Z,4.67
2023-05-03T20:10:52.209Z,4.67
2023-05-03T20:13:20.126Z,4.80
2023-05-03T20:15:48.039Z,4.57
2023-05-03T20:18:17.277Z,4.67
2023-05-03T20:20:45.140Z,4.70
2023-05-03T20:23:13.118Z,4.95
2023-05-03T20:25:41.092Z,4.70
2023-05-03T20:28:08.957Z,4.63
2023-05-03T20:30:36.886Z,4.27
2023-05-03T20:33:05.307Z,4.60
2023-05-03T20:35:34.543Z,4.17
2023-05-03T20:38:02.423Z,4.07
2023-05-03T20:40:30.392Z,4.50
2023-05-03T20:42:58.229Z,4.40
2023-05-03T20:45:26.172Z,4.87
2023-05-03T20:47:54.158Z,5.28
2023-05-03T20:50:22.456Z,4.80
2023-05-03T20:52:51.728Z,5.03
2023-05-03T20:55:19.834Z,4.70
2023-05-03T20:57:47.725Z,4.83
2023-05-03T21:00:16.579Z,4.83
2023-05-03T21:02:44.908Z,4.80
2023-05-03T21:05:13.025Z,4.87
2023-05-03T21:07:40.926Z,4.97
2023-05-03T21:10:11.047Z,4.90
2023-05-03T21:12:38.982Z,5.03
2023-05-03T21:15:07.844Z,5.10
2023-05-03T21:17:35.822Z,5.63
2023-05-03T21:20:05.858Z,5.47
2023-05-03T21:22:33.911Z,5.47
2023-05-03T21:25:01.783Z,5.33
2023-05-03T21:27:31.275Z,5.30
2023-05-03T21:29:59.161Z,5.73
2023-05-03T21:32:27.132Z,5.57
2023-05-03T21:34:55.102Z,5.30
2023-05-03T21:37:22.988Z,4.90
2023-05-03T21:40:05.342Z,5.10
2023-05-03T21:42:34.765Z,5.10
2023-05-03T21:45:02.742Z,5.10
2023-05-03T21:47:31.315Z,5.57
2023-05-03T21:49:59.687Z,5.30
2023-05-03T21:52:27.760Z,5.30
2023-05-03T21:54:55.857Z,5.70
2023-05-03T21:57:23.760Z,5.03
2023-05-03T21:59:53.868Z,5.53
2023-05-03T22:02:22.404Z,5.50
2023-05-03T22:04:50.927Z,5.60
2023-05-03T22:07:18.962Z,5.20
2023-05-03T22:09:48.046Z,6.20
2023-05-03T22:14:47.332Z,5.57
2023-05-03T22:17:16.659Z,5.43
2023-05-03T22:19:44.537Z,5.30
2023-05-03T22:22:12.385Z,5.43
2023-05-03T22:24:40.605Z,6.00
2023-05-03T22:27:08.638Z,6.00
2023-05-03T22:29:36.655Z,5.97
2023-05-03T22:32:04.749Z,5.83
2023-05-03T22:34:34.041Z,5.63
2023-05-03T22:37:01.873Z,6.13
2023-05-03T22:39:29.739Z,6.03
2023-05-03T22:41:57.584Z,6.10
2023-05-03T22:44:25.585Z,5.87
2023-05-03T22:46:53.423Z,5.27
2023-05-03T22:49:21.298Z,5.63
2023-05-03T22:51:50.540Z,6.17
2023-05-03T22:54:18.467Z,6.40
2023-05-03T22:56:46.430Z,5.63
2023-05-03T22:59:14.248Z,5.87
2023-05-03T23:01:43.897Z,6.37
2023-05-03T23:04:11.758Z,5.87
2023-05-03T23:06:39.719Z,6.23
2023-05-03T23:09:09.770Z,5.80
2023-05-03T23:11:37.657Z,6.57
2023-05-03T23:14:05.809Z,5.13
2023-05-03T23:16:33.801Z,5.87
2023-05-03T23:19:02.110Z,6.20
2023-05-03T23:21:30.106Z,6.10
2023-05-03T23:23:58.024Z,6.00
2023-05-03T23:26:27.960Z,5.43
2023-05-03T23:28:56.408Z,5.87
2023-05-03T23:31:24.987Z,5.43
2023-05-03T23:33:53.457Z,6.03
2023-05-03T23:36:21.431Z,6.20
2023-05-03T23:38:51.075Z,5.93
2023-05-03T23:41:19.009Z,5.90
2023-05-03T23:43:48.392Z,5.70
2023-05-03T23:46:16.401Z,5.63
2023-05-03T23:48:44.439Z,5.97
2023-05-03T23:51:12.279Z,6.10
2023-05-03T23:53:40.106Z,6.27
2023-05-03T23:56:08.294Z,5.97
2023-05-03T23:58:36.169Z,5.80
